createdAt,value
2022-12-10T00:00:54.451Z,-0.11
2022-12-10T00:02:26.174Z,-0.04
2022-12-10T00:03:58.182Z,-0.03
2022-12-10T00:05:29.918Z,-0.02
2022-12-10T00:07:01.472Z,0.03
2022-12-10T00:08:34.212Z,0.05
2022-12-10T00:10:10.841Z,0.07
2022-12-10T00:11:43.314Z,0.09
2022-12-10T00:13:14.880Z,0.19
2022-12-10T00:14:46.546Z,0.17
2022-12-10T00:16:19.945Z,0.17
2022-12-10T00:17:51.606Z,0.22
2022-12-10T00:19:23.231Z,0.21
2022-12-10T00:20:55.513Z,0.16
2022-12-10T00:22:27.146Z,0.10
2022-12-10T00:23:59.942Z,0.21
2022-12-10T00:25:33.100Z,0.21
2022-12-10T00:27:04.732Z,0.15
2022-12-10T00:28:36.553Z,0.13
2022-12-10T00:30:08.852Z,0.22
2022-12-10T00:31:41.330Z,0.11
2022-12-10T00:33:13.132Z,0.00
2022-12-10T00:34:44.740Z,0.00
2022-12-10T00:36:24.498Z,-0.01
2022-12-10T00:37:56.163Z,-0.01
2022-12-10T00:39:28.010Z,-0.01
2022-12-10T00:41:00.175Z,0.00
2022-12-10T00:42:31.961Z,0.02
2022-12-10T00:44:03.757Z,0.05
2022-12-10T00:45:35.317Z,0.04
2022-12-10T00:47:06.992Z,0.04
2022-12-10T00:48:38.701Z,0.08
2022-12-10T00:50:10.639Z,0.13
2022-12-10T00:51:42.506Z,0.08
2022-12-10T00:53:16.602Z,0.07
2022-12-10T00:54:48.200Z,0.12
2022-12-10T00:56:22.820Z,0.08
2022-12-10T00:57:54.402Z,0.09
2022-12-10T00:59:26.034Z,0.08
2022-12-10T01:01:15.991Z,0.14
2022-12-10T01:02:47.609Z,0.09
2022-12-10T01:04:19.718Z,0.10
2022-12-10T01:05:51.431Z,0.08
2022-12-10T01:07:23.046Z,-0.01
2022-12-10T01:08:58.444Z,0.00
2022-12-10T01:10:31.220Z,0.10
2022-12-10T01:12:03.963Z,0.03
2022-12-10T01:13:36.286Z,0.04
2022-12-10T01:15:08.117Z,0.08
2022-12-10T01:16:39.828Z,0.03
2022-12-10T01:18:11.728Z,0.08
2022-12-10T01:19:43.428Z,0.06
2022-12-10T01:21:18.656Z,0.11
2022-12-10T01:22:50.736Z,0.12
2022-12-10T01:24:27.281Z,0.06
2022-12-10T01:26:07.696Z,0.02
2022-12-10T01:27:39.710Z,0.04
2022-12-10T01:29:12.497Z,0.00
2022-12-10T01:30:45.362Z,0.01
2022-12-10T01:32:16.930Z,0.07
2022-12-10T01:33:49.166Z,0.10
2022-12-10T01:35:20.739Z,0.08
2022-12-10T01:36:55.055Z,0.04
2022-12-10T01:38:26.606Z,0.05
2022-12-10T01:39:58.225Z,0.05
2022-12-10T01:41:36.857Z,0.04
2022-12-10T01:43:15.061Z,0.02
2022-12-10T01:44:49.510Z,0.03
2022-12-10T01:46:22.661Z,0.08
2022-12-10T01:47:54.225Z,0.12
2022-12-10T01:49:27.905Z,0.17
2022-12-10T01:50:59.588Z,0.23
2022-12-10T01:52:31.431Z,0.14
2022-12-10T01:54:06.242Z,0.09
2022-12-10T01:55:48.846Z,0.09
2022-12-10T01:57:26.604Z,0.10
2022-12-10T01:58:58.597Z,0.16
2022-12-10T02:00:33.717Z,0.25
2022-12-10T02:02:37.596Z,0.15
2022-12-10T02:04:28.156Z,0.10
2022-12-10T02:06:13.241Z,0.11
2022-12-10T02:07:47.968Z,0.22
2022-12-10T02:09:46.760Z,0.16
2022-12-10T02:11:38.122Z,0.15
2022-12-10T02:13:31.512Z,0.16
2022-12-10T02:15:11.417Z,0.20
2022-12-10T02:16:55.499Z,0.21
2022-12-10T02:18:59.201Z,0.25
2022-12-10T02:20:37.477Z,0.27
2022-12-10T02:22:14.952Z,0.24
2022-12-10T02:23:52.990Z,0.23
2022-12-10T02:25:34.679Z,0.25
2022-12-10T02:27:23.162Z,0.23
2022-12-10T02:29:19.514Z,0.27
2022-12-10T02:30:57.798Z,0.30
2022-12-10T02:32:38.701Z,0.25
2022-12-10T02:34:11.943Z,0.26
2022-12-10T02:35:48.093Z,0.26
2022-12-10T02:37:30.140Z,0.35
2022-12-10T02:39:06.766Z,0.34
2022-12-10T02:40:46.249Z,0.33
2022-12-10T02:42:19.716Z,0.38
2022-12-10T02:43:55.537Z,0.36
2022-12-10T02:45:31.430Z,0.39
2022-12-10T02:47:06.348Z,0.41
2022-12-10T02:48:42.896Z,0.47
2022-12-10T02:50:17.043Z,0.45
2022-12-10T02:51:48.609Z,0.43
2022-12-10T02:53:20.533Z,0.46
2022-12-10T02:54:52.497Z,0.45
2022-12-10T02:56:31.759Z,0.45
2022-12-10T02:58:09.176Z,0.45
2022-12-10T02:59:59.099Z,0.48
2022-12-10T03:01:55.588Z,0.44
2022-12-10T03:03:36.404Z,0.47
2022-12-10T03:05:20.931Z,0.47
2022-12-10T03:07:03.589Z,0.46
2022-12-10T03:08:40.231Z,0.49
2022-12-10T03:10:11.746Z,0.48
2022-12-10T03:11:45.992Z,0.46
2022-12-10T03:13:21.822Z,0.44
2022-12-10T03:14:57.461Z,0.47
2022-12-10T03:16:40.108Z,0.48
2022-12-10T03:18:13.756Z,0.44
2022-12-10T03:19:48.912Z,0.45
2022-12-10T03:21:21.073Z,0.47
2022-12-10T03:22:52.917Z,0.52
2022-12-10T03:24:27.891Z,0.49
2022-12-10T03:25:59.577Z,0.53
2022-12-10T03:27:32.621Z,0.53
2022-12-10T03:29:09.106Z,0.57
2022-12-10T03:30:43.179Z,0.53
2022-12-10T03:32:16.286Z,0.55
2022-12-10T03:33:48.930Z,0.50
2022-12-10T03:35:24.356Z,0.50
2022-12-10T03:36:56.261Z,0.49
2022-12-10T03:38:28.622Z,0.51
2022-12-10T03:40:00.611Z,0.51
2022-12-10T03:41:32.313Z,0.51
2022-12-10T03:43:03.943Z,0.50
2022-12-10T03:44:38.713Z,0.52
2022-12-10T03:46:10.302Z,0.51
2022-12-10T03:47:42.159Z,0.48
2022-12-10T03:49:14.051Z,0.50
2022-12-10T03:50:45.606Z,0.48
2022-12-10T03:52:17.131Z,0.53
2022-12-10T03:53:51.684Z,0.55
2022-12-10T03:55:23.235Z,0.56
2022-12-10T03:56:55.288Z,0.59
2022-12-10T03:58:26.822Z,0.65
2022-12-10T03:59:58.412Z,0.65
2022-12-10T04:01:30.122Z,0.63
2022-12-10T04:03:02.086Z,0.65
2022-12-10T04:04:33.697Z,0.66
2022-12-10T04:06:07.731Z,0.68
2022-12-10T04:07:40.306Z,0.65
2022-12-10T04:09:13.835Z,0.64
2022-12-10T04:10:47.031Z,0.67
2022-12-10T04:12:18.583Z,0.64
2022-12-10T04:14:08.502Z,0.63
2022-12-10T04:15:58.819Z,0.68
2022-12-10T04:17:33.340Z,0.72
2022-12-10T04:19:08.297Z,0.73
2022-12-10T04:20:58.305Z,0.72
2022-12-10T04:22:48.202Z,0.69
2022-12-10T04:24:40.908Z,0.67
2022-12-10T04:26:31.619Z,0.64
2022-12-10T04:28:03.230Z,0.64
2022-12-10T04:29:35.226Z,0.60
2022-12-10T04:31:07.131Z,0.59
2022-12-10T04:32:39.186Z,0.58
2022-12-10T04:34:10.802Z,0.61
2022-12-10T04:35:42.368Z,0.59
2022-12-10T04:37:15.106Z,0.57
2022-12-10T04:38:46.671Z,0.61
2022-12-10T04:40:18.362Z,0.67
2022-12-10T04:41:51.601Z,0.65
2022-12-10T04:43:23.191Z,0.60
2022-12-10T04:44:54.963Z,0.52
2022-12-10T04:46:26.615Z,0.51
2022-12-10T04:47:58.218Z,0.43
2022-12-10T04:49:29.897Z,0.38
2022-12-10T04:51:01.563Z,0.44
2022-12-10T04:52:33.228Z,0.48
2022-12-10T04:54:05.398Z,0.48
2022-12-10T04:55:36.938Z,0.50
2022-12-10T04:57:09.021Z,0.49
2022-12-10T04:58:40.691Z,0.46
2022-12-10T05:00:13.083Z,0.49
2022-12-10T05:01:45.252Z,0.51
2022-12-10T05:03:16.930Z,0.54
2022-12-10T05:04:50.437Z,0.43
2022-12-10T05:06:22.296Z,0.46
2022-12-10T05:07:53.921Z,0.44
2022-12-10T05:09:25.489Z,0.47
2022-12-10T05:11:04.701Z,0.46
2022-12-10T05:12:37.271Z,0.45
2022-12-10T05:14:11.467Z,0.51
2022-12-10T05:15:43.061Z,0.55
2022-12-10T05:17:14.667Z,0.51
2022-12-10T05:18:46.552Z,0.51
2022-12-10T05:20:18.137Z,0.50
2022-12-10T05:22:08.789Z,0.56
2022-12-10T05:23:43.600Z,0.54
2022-12-10T05:25:15.256Z,0.51
2022-12-10T05:26:47.493Z,0.50
2022-12-10T05:28:23.277Z,0.47
2022-12-10T05:29:54.836Z,0.43
2022-12-10T05:31:29.141Z,0.41
2022-12-10T05:33:00.726Z,0.48
2022-12-10T05:34:32.879Z,0.47
2022-12-10T05:36:04.931Z,0.43
2022-12-10T05:37:36.599Z,0.50
2022-12-10T05:39:08.657Z,0.49
2022-12-10T05:40:40.260Z,0.47
2022-12-10T05:42:11.895Z,0.45
2022-12-10T05:43:44.357Z,0.43
2022-12-10T05:45:16.171Z,0.47
2022-12-10T05:46:47.732Z,0.49
2022-12-10T05:48:19.390Z,0.50
2022-12-10T05:49:52.684Z,0.51
2022-12-10T05:51:30.357Z,0.54
2022-12-10T05:53:01.916Z,0.50
2022-12-10T05:54:34.040Z,0.46
2022-12-10T05:56:11.333Z,0.47
2022-12-10T05:57:42.969Z,0.48
2022-12-10T05:59:16.971Z,0.45
2022-12-10T06:00:48.715Z,0.44
2022-12-10T06:02:20.308Z,0.46
2022-12-10T06:03:53.251Z,0.47
2022-12-10T06:05:24.848Z,0.44
2022-12-10T06:06:56.400Z,0.40
2022-12-10T06:08:27.938Z,0.39
2022-12-10T06:09:59.593Z,0.37
2022-12-10T06:11:31.346Z,0.38
2022-12-10T06:13:04.616Z,0.44
2022-12-10T06:14:36.315Z,0.48
2022-12-10T06:16:10.068Z,0.44
2022-12-10T06:17:41.694Z,0.43
2022-12-10T06:19:13.611Z,0.37
2022-12-10T06:20:47.520Z,0.37
2022-12-10T06:22:19.317Z,0.35
2022-12-10T06:23:52.574Z,0.37
2022-12-10T06:25:24.305Z,0.42
2022-12-10T06:26:56.190Z,0.43
2022-12-10T06:28:28.261Z,0.44
2022-12-10T06:29:59.952Z,0.44
2022-12-10T06:31:31.619Z,0.43
2022-12-10T06:33:03.367Z,0.47
2022-12-10T06:34:37.590Z,0.47
2022-12-10T06:36:15.826Z,0.49
2022-12-10T06:37:47.360Z,0.50
2022-12-10T06:39:18.908Z,0.51
2022-12-10T06:40:50.807Z,0.53
2022-12-10T06:42:23.070Z,0.54
2022-12-10T06:43:59.160Z,0.54
2022-12-10T06:45:30.765Z,0.51
2022-12-10T06:47:02.438Z,0.49
2022-12-10T06:48:34.436Z,0.46
2022-12-10T06:50:06.813Z,0.47
2022-12-10T06:51:39.631Z,0.48
2022-12-10T06:53:11.310Z,0.50
2022-12-10T06:54:43.039Z,0.58
2022-12-10T06:56:17.968Z,0.56
2022-12-10T06:57:53.286Z,0.63
2022-12-10T06:59:25.087Z,0.56
2022-12-10T07:01:04.933Z,0.60
2022-12-10T07:02:36.643Z,0.59
2022-12-10T07:04:09.457Z,0.55
2022-12-10T07:05:41.191Z,0.54
2022-12-10T07:07:12.798Z,0.55
2022-12-10T07:08:44.537Z,0.53
2022-12-10T07:10:16.330Z,0.55
2022-12-10T07:11:47.836Z,0.53
2022-12-10T07:13:19.430Z,0.56
2022-12-10T07:14:50.937Z,0.56
2022-12-10T07:16:26.441Z,0.56
2022-12-10T07:17:58.182Z,0.57
2022-12-10T07:19:29.723Z,0.57
2022-12-10T07:21:01.417Z,0.57
2022-12-10T07:22:33.012Z,0.64
2022-12-10T07:24:07.564Z,0.59
2022-12-10T07:25:39.103Z,0.56
2022-12-10T07:27:10.827Z,0.50
2022-12-10T07:28:52.150Z,0.46
2022-12-10T07:30:24.903Z,0.51
2022-12-10T07:31:56.587Z,0.49
2022-12-10T07:33:28.105Z,0.46
2022-12-10T07:34:59.648Z,0.48
2022-12-10T07:36:31.299Z,0.47
2022-12-10T07:38:02.847Z,0.52
2022-12-10T07:39:34.587Z,0.53
2022-12-10T07:41:10.927Z,0.54
2022-12-10T07:42:42.685Z,0.58
2022-12-10T07:44:14.492Z,0.59
2022-12-10T07:45:46.234Z,0.59
2022-12-10T07:47:18.159Z,0.59
2022-12-10T07:48:50.393Z,0.58
2022-12-10T07:50:22.283Z,0.56
2022-12-10T07:51:54.068Z,0.58
2022-12-10T07:53:25.749Z,0.55
2022-12-10T07:54:57.625Z,0.51
2022-12-10T07:56:29.437Z,0.55
2022-12-10T07:58:01.207Z,0.58
2022-12-10T07:59:33.019Z,0.59
2022-12-10T08:01:10.036Z,0.58
2022-12-10T08:02:41.889Z,0.57
2022-12-10T08:04:13.594Z,0.58
2022-12-10T08:05:45.417Z,0.57
2022-12-10T08:07:17.035Z,0.69
2022-12-10T08:08:49.946Z,0.67
2022-12-10T08:10:21.562Z,0.59
2022-12-10T08:11:54.260Z,0.55
2022-12-10T08:13:26.022Z,0.57
2022-12-10T08:14:57.661Z,0.61
2022-12-10T08:16:32.035Z,0.58
2022-12-10T08:18:03.908Z,0.65
2022-12-10T08:19:35.644Z,0.70
2022-12-10T08:21:09.362Z,0.72
2022-12-10T08:22:41.156Z,0.71
2022-12-10T08:24:12.796Z,0.70
2022-12-10T08:25:44.522Z,0.69
2022-12-10T08:27:16.138Z,0.68
2022-12-10T08:28:49.881Z,0.66
2022-12-10T08:30:22.479Z,0.65
2022-12-10T08:31:54.156Z,0.69
2022-12-10T08:33:26.459Z,0.71
2022-12-10T08:34:58.236Z,0.74
2022-12-10T08:36:31.378Z,0.75
2022-12-10T08:38:02.969Z,0.76
2022-12-10T08:39:34.504Z,0.81
2022-12-10T08:41:12.033Z,0.86
2022-12-10T08:42:43.715Z,0.83
2022-12-10T08:44:15.362Z,0.85
2022-12-10T08:45:47.089Z,0.91
2022-12-10T08:47:18.703Z,1.02
2022-12-10T08:48:50.289Z,1.10
2022-12-10T08:50:21.988Z,1.10
2022-12-10T08:51:53.687Z,1.26
2022-12-10T08:53:25.448Z,1.20
2022-12-10T08:54:57.074Z,1.12
2022-12-10T08:56:28.937Z,0.98
2022-12-10T08:58:00.587Z,0.91
2022-12-10T08:59:32.275Z,0.92
2022-12-10T09:01:12.351Z,0.96
2022-12-10T09:02:44.247Z,1.00
2022-12-10T09:04:16.809Z,1.13
2022-12-10T09:05:48.601Z,1.21
2022-12-10T09:07:20.253Z,1.16
2022-12-10T09:08:53.806Z,1.11
2022-12-10T09:10:25.373Z,1.09
2022-12-10T09:11:56.988Z,1.12
2022-12-10T09:13:29.426Z,1.16
2022-12-10T09:15:01.234Z,1.15
2022-12-10T09:16:37.440Z,1.22
2022-12-10T09:18:09.059Z,1.24
2022-12-10T09:19:40.607Z,1.21
2022-12-10T09:21:14.767Z,1.16
2022-12-10T09:22:46.387Z,1.16
2022-12-10T09:24:17.968Z,1.19
2022-12-10T09:25:49.857Z,1.25
2022-12-10T09:27:21.658Z,1.28
2022-12-10T09:28:54.069Z,1.31
2022-12-10T09:30:25.727Z,1.29
2022-12-10T09:31:57.500Z,1.32
2022-12-10T09:33:30.057Z,1.25
2022-12-10T09:35:01.755Z,1.26
2022-12-10T09:36:34.201Z,1.17
2022-12-10T09:38:06.072Z,1.20
2022-12-10T09:39:37.662Z,1.22
2022-12-10T09:41:38.180Z,1.18
2022-12-10T09:43:31.410Z,1.21
2022-12-10T09:45:26.196Z,1.26
2022-12-10T09:46:59.969Z,1.33
2022-12-10T09:48:50.420Z,1.40
2022-12-10T09:50:31.627Z,1.40
2022-12-10T09:52:06.713Z,1.47
2022-12-10T09:53:39.894Z,1.47
2022-12-10T09:55:18.702Z,1.50
2022-12-10T09:56:56.312Z,1.55
2022-12-10T09:58:30.311Z,1.60
2022-12-10T10:00:30.492Z,1.67
2022-12-10T10:02:30.431Z,1.90
2022-12-10T10:04:04.482Z,1.95
2022-12-10T10:05:40.816Z,1.89
2022-12-10T10:07:31.465Z,1.92
2022-12-10T10:09:04.440Z,1.94
2022-12-10T10:10:39.337Z,2.00
2022-12-10T10:12:18.118Z,1.92
2022-12-10T10:13:56.187Z,1.91
2022-12-10T10:15:45.402Z,1.81
2022-12-10T10:17:32.667Z,1.80
2022-12-10T10:19:16.171Z,1.79
2022-12-10T10:20:48.033Z,1.95
2022-12-10T10:22:19.842Z,2.02
2022-12-10T10:23:52.377Z,2.04
2022-12-10T10:25:28.090Z,2.11
2022-12-10T10:27:11.950Z,2.03
2022-12-10T10:28:47.331Z,1.98
2022-12-10T10:30:23.244Z,1.98
2022-12-10T10:32:13.944Z,1.89
2022-12-10T10:33:58.145Z,1.92
2022-12-10T10:35:34.799Z,1.76
2022-12-10T10:37:06.691Z,1.65
2022-12-10T10:38:38.415Z,1.69
2022-12-10T10:40:24.596Z,1.80
2022-12-10T10:41:58.678Z,1.85
2022-12-10T10:43:42.260Z,1.81
2022-12-10T10:45:37.832Z,1.99
2022-12-10T10:47:34.758Z,2.00
2022-12-10T10:49:26.588Z,2.04
2022-12-10T10:51:21.189Z,2.04
2022-12-10T10:52:52.823Z,2.02
2022-12-10T10:54:42.080Z,1.93
2022-12-10T10:56:21.959Z,1.85
2022-12-10T10:57:53.769Z,1.85
2022-12-10T10:59:34.771Z,1.84
2022-12-10T11:01:09.711Z,1.84
2022-12-10T11:02:44.757Z,1.89
2022-12-10T11:04:19.109Z,1.94
2022-12-10T11:05:50.711Z,1.94
2022-12-10T11:07:26.213Z,1.89
2022-12-10T11:08:59.589Z,1.89
2022-12-10T11:10:32.235Z,1.85
2022-12-10T11:12:21.924Z,1.91
2022-12-10T11:13:53.643Z,1.74
2022-12-10T11:15:25.348Z,1.67
2022-12-10T11:17:13.672Z,1.76
2022-12-10T11:19:03.823Z,1.71
2022-12-10T11:20:42.027Z,1.72
2022-12-10T11:22:34.133Z,1.83
2022-12-10T11:24:12.404Z,1.94
2022-12-10T11:26:08.620Z,1.79
2022-12-10T11:27:58.813Z,1.76
2022-12-10T11:29:49.590Z,1.92
2022-12-10T11:31:51.681Z,2.07
2022-12-10T11:33:42.997Z,2.01
2022-12-10T11:35:17.419Z,2.05
2022-12-10T11:37:31.427Z,2.12
2022-12-10T11:39:32.252Z,2.12
2022-12-10T11:41:31.283Z,2.15
2022-12-10T11:43:26.464Z,2.20
2022-12-10T11:45:10.218Z,2.26
2022-12-10T11:46:55.054Z,2.27
2022-12-10T11:48:35.472Z,2.11
2022-12-10T11:50:20.767Z,2.16
2022-12-10T11:52:12.785Z,2.13
2022-12-10T11:53:56.324Z,2.22
2022-12-10T11:56:06.176Z,2.18
2022-12-10T11:58:15.473Z,2.10
2022-12-10T12:00:15.871Z,2.14
2022-12-10T12:02:00.196Z,1.96
2022-12-10T12:04:09.465Z,2.12
2022-12-10T12:05:53.103Z,2.07
2022-12-10T12:07:53.221Z,2.12
2022-12-10T12:09:36.811Z,2.04
2022-12-10T12:11:28.805Z,1.96
2022-12-10T12:13:11.176Z,1.92
2022-12-10T12:14:58.315Z,1.94
2022-12-10T12:16:32.670Z,1.98
2022-12-10T12:18:23.107Z,2.08
2022-12-10T12:20:15.857Z,2.10
2022-12-10T12:21:51.016Z,2.09
2022-12-10T12:23:32.220Z,2.15
2022-12-10T12:25:17.147Z,2.13
2022-12-10T12:27:02.577Z,2.11
2022-12-10T12:29:07.919Z,1.95
2022-12-10T12:30:42.659Z,1.99
2022-12-10T12:32:20.428Z,1.95
2022-12-10T12:34:06.411Z,2.01
2022-12-10T12:35:51.095Z,2.00
2022-12-10T12:37:31.043Z,1.92
2022-12-10T12:39:16.940Z,1.96
2022-12-10T12:41:04.435Z,2.01
2022-12-10T12:42:45.221Z,2.02
2022-12-10T12:44:44.741Z,1.95
2022-12-10T12:46:34.547Z,1.85
2022-12-10T12:48:31.695Z,1.82
2022-12-10T12:50:06.209Z,1.89
2022-12-10T12:51:44.725Z,1.99
2022-12-10T12:53:20.603Z,2.03
2022-12-10T12:54:55.069Z,2.19
2022-12-10T12:56:38.290Z,2.12
2022-12-10T12:58:16.494Z,2.13
2022-12-10T13:00:11.266Z,2.23
2022-12-10T13:01:55.028Z,2.21
2022-12-10T13:03:41.090Z,2.26
2022-12-10T13:05:19.483Z,2.30
2022-12-10T13:07:27.997Z,2.28
2022-12-10T13:09:25.651Z,2.11
2022-12-10T13:11:15.249Z,2.11
2022-12-10T13:12:46.847Z,2.08
2022-12-10T13:14:34.827Z,2.13
2022-12-10T13:16:46.209Z,2.16
2022-12-10T13:18:21.756Z,2.23
2022-12-10T13:19:55.046Z,2.24
2022-12-10T13:21:31.033Z,2.24
2022-12-10T13:23:05.067Z,2.21
2022-12-10T13:24:36.650Z,2.17
2022-12-10T13:26:31.929Z,2.20
2022-12-10T13:28:22.614Z,2.04
2022-12-10T13:30:26.472Z,2.03
2022-12-10T13:32:17.917Z,2.02
2022-12-10T13:34:05.352Z,2.03
2022-12-10T13:35:49.610Z,1.99
2022-12-10T13:37:32.402Z,1.93
2022-12-10T13:39:03.960Z,1.88
2022-12-10T13:41:01.301Z,1.87
2022-12-10T13:42:54.086Z,1.83
2022-12-10T13:44:49.128Z,1.91
2022-12-10T13:46:35.984Z,1.83
2022-12-10T13:48:36.313Z,1.77
2022-12-10T13:50:41.336Z,1.74
2022-12-10T13:52:26.775Z,1.74
2022-12-10T13:53:58.391Z,1.80
2022-12-10T13:55:59.018Z,1.73
2022-12-10T13:57:47.143Z,1.73
2022-12-10T13:59:30.394Z,1.69
2022-12-10T14:01:09.242Z,1.64
2022-12-10T14:03:18.386Z,1.67
2022-12-10T14:05:08.566Z,1.69
2022-12-10T14:06:41.200Z,1.62
2022-12-10T14:08:19.512Z,1.61
2022-12-10T14:09:54.894Z,1.55
2022-12-10T14:11:37.146Z,1.63
2022-12-10T14:13:14.417Z,1.53
2022-12-10T14:14:55.889Z,1.53
2022-12-10T14:16:32.130Z,1.55
2022-12-10T14:18:16.277Z,1.58
2022-12-10T14:19:51.590Z,1.57
2022-12-10T14:21:25.490Z,1.55
2022-12-10T14:23:17.724Z,1.48
2022-12-10T14:24:51.295Z,1.52
2022-12-10T14:26:29.288Z,1.50
2022-12-10T14:28:02.871Z,1.43
2022-12-10T14:29:34.611Z,1.44
2022-12-10T14:31:12.348Z,1.42
2022-12-10T14:32:44.850Z,1.40
2022-12-10T14:34:22.291Z,1.39
2022-12-10T14:35:54.568Z,1.40
2022-12-10T14:37:30.555Z,1.34
2022-12-10T14:39:02.905Z,1.32
2022-12-10T14:40:42.809Z,1.31
2022-12-10T14:42:17.250Z,1.33
2022-12-10T14:43:49.596Z,1.32
2022-12-10T14:45:21.256Z,1.29
2022-12-10T14:46:53.204Z,1.30
2022-12-10T14:48:25.817Z,1.26
2022-12-10T14:49:57.471Z,1.26
2022-12-10T14:51:34.359Z,1.25
2022-12-10T14:53:12.703Z,1.17
2022-12-10T14:54:45.142Z,1.07
2022-12-10T14:56:25.640Z,1.05
2022-12-10T14:58:04.173Z,1.07
2022-12-10T14:59:52.120Z,1.06
2022-12-10T15:01:28.422Z,1.05
2022-12-10T15:03:09.550Z,1.03
2022-12-10T15:04:44.807Z,0.97
2022-12-10T15:06:20.013Z,1.00
2022-12-10T15:08:16.070Z,0.99
2022-12-10T15:09:49.715Z,0.97
2022-12-10T15:11:21.566Z,0.94
2022-12-10T15:12:54.895Z,0.94
2022-12-10T15:14:29.321Z,0.92
2022-12-10T15:16:02.038Z,0.93
2022-12-10T15:17:43.502Z,0.92
2022-12-10T15:19:25.449Z,0.87
2022-12-10T15:21:14.789Z,0.84
2022-12-10T15:22:46.540Z,0.78
2022-12-10T15:24:21.258Z,0.78
2022-12-10T15:25:58.590Z,0.76
2022-12-10T15:27:30.406Z,0.72
2022-12-10T15:29:27.785Z,0.73
2022-12-10T15:31:13.893Z,0.65
2022-12-10T15:32:49.689Z,0.64
2022-12-10T15:34:21.564Z,0.67
2022-12-10T15:35:55.831Z,0.57
2022-12-10T15:37:34.631Z,0.61
2022-12-10T15:39:17.675Z,0.58
2022-12-10T15:40:49.349Z,0.54
2022-12-10T15:42:38.370Z,0.54
2022-12-10T15:44:31.426Z,0.54
2022-12-10T15:46:06.035Z,0.61
2022-12-10T15:47:39.456Z,0.66
2022-12-10T15:49:11.123Z,0.57
2022-12-10T15:50:46.178Z,0.51
2022-12-10T15:52:19.305Z,0.51
2022-12-10T15:53:50.935Z,0.47
2022-12-10T15:55:22.765Z,0.48
2022-12-10T15:56:54.342Z,0.48
2022-12-10T15:58:27.008Z,0.45
2022-12-10T16:00:04.092Z,0.51
2022-12-10T16:01:43.358Z,0.50
2022-12-10T16:03:17.572Z,0.50
2022-12-10T16:04:49.212Z,0.44
2022-12-10T16:06:20.863Z,0.45
2022-12-10T16:07:54.791Z,0.45
2022-12-10T16:09:26.467Z,0.44
2022-12-10T16:11:01.768Z,0.41
2022-12-10T16:12:40.145Z,0.40
2022-12-10T16:14:14.179Z,0.35
2022-12-10T16:15:59.793Z,0.38
2022-12-10T16:17:31.724Z,0.35
2022-12-10T16:19:11.753Z,0.29
2022-12-10T16:20:43.732Z,0.36
2022-12-10T16:22:15.336Z,0.33
2022-12-10T16:23:49.288Z,0.33
2022-12-10T16:25:22.403Z,0.33
2022-12-10T16:26:53.988Z,0.33
2022-12-10T16:28:26.922Z,0.36
2022-12-10T16:29:58.598Z,0.41
2022-12-10T16:31:30.947Z,0.34
2022-12-10T16:33:03.648Z,0.33
2022-12-10T16:34:35.240Z,0.30
2022-12-10T16:36:07.029Z,0.26
2022-12-10T16:37:38.665Z,0.24
2022-12-10T16:39:10.372Z,0.23
2022-12-10T16:40:43.599Z,0.26
2022-12-10T16:42:15.269Z,0.25
2022-12-10T16:43:47.106Z,0.29
2022-12-10T16:45:34.442Z,0.32
2022-12-10T16:47:13.045Z,0.25
2022-12-10T16:48:44.688Z,0.22
2022-12-10T16:50:17.284Z,0.25
2022-12-10T16:51:48.861Z,0.20
2022-12-10T16:53:27.340Z,0.14
2022-12-10T16:54:58.898Z,0.13
2022-12-10T16:56:31.234Z,0.14
2022-12-10T16:58:03.129Z,0.14
2022-12-10T16:59:34.726Z,0.25
2022-12-10T17:01:17.020Z,0.20
2022-12-10T17:02:49.554Z,0.15
2022-12-10T17:04:21.192Z,0.13
2022-12-10T17:05:58.066Z,0.11
2022-12-10T17:07:29.620Z,0.13
2022-12-10T17:09:01.212Z,0.12
2022-12-10T17:10:51.703Z,0.11
2022-12-10T17:12:24.153Z,0.12
2022-12-10T17:13:55.783Z,0.10
2022-12-10T17:15:27.644Z,0.08
2022-12-10T17:17:01.240Z,0.07
2022-12-10T17:18:34.875Z,0.10
2022-12-10T17:20:18.645Z,0.14
2022-12-10T17:21:50.989Z,0.08
2022-12-10T17:23:22.898Z,0.05
2022-12-10T17:24:54.491Z,0.06
2022-12-10T17:26:31.617Z,-0.03
2022-12-10T17:28:03.445Z,-0.06
2022-12-10T17:29:39.459Z,-0.07
2022-12-10T17:31:11.096Z,-0.10
2022-12-10T17:32:43.741Z,-0.09
2022-12-10T17:34:16.230Z,-0.08
2022-12-10T17:35:48.678Z,-0.09
2022-12-10T17:37:21.194Z,-0.12
2022-12-10T17:38:52.786Z,-0.15
2022-12-10T17:40:24.629Z,-0.13
2022-12-10T17:41:56.449Z,-0.16
2022-12-10T17:43:28.034Z,-0.17
2022-12-10T17:44:59.691Z,-0.15
2022-12-10T17:46:32.606Z,-0.11
2022-12-10T17:48:06.881Z,0.02
2022-12-10T17:49:38.612Z,0.00
2022-12-10T17:51:13.117Z,-0.02
2022-12-10T17:52:44.716Z,-0.03
2022-12-10T17:54:16.323Z,-0.01
2022-12-10T17:55:58.531Z,-0.05
2022-12-10T17:57:30.176Z,-0.05
2022-12-10T17:59:01.749Z,-0.06
2022-12-10T18:00:36.247Z,-0.07
2022-12-10T18:02:09.016Z,-0.04
2022-12-10T18:03:41.084Z,-0.09
2022-12-10T18:05:12.689Z,-0.10
2022-12-10T18:06:44.289Z,-0.08
2022-12-10T18:08:23.650Z,-0.06
2022-12-10T18:09:55.588Z,-0.05
2022-12-10T18:11:30.683Z,-0.03
2022-12-10T18:13:02.364Z,-0.06
2022-12-10T18:14:34.000Z,-0.07
2022-12-10T18:16:12.545Z,-0.10
2022-12-10T18:17:46.292Z,-0.13
2022-12-10T18:19:18.327Z,-0.18
2022-12-10T18:20:50.008Z,-0.19
2022-12-10T18:22:21.692Z,-0.06
2022-12-10T18:23:54.685Z,-0.06
2022-12-10T18:25:26.941Z,-0.10
2022-12-10T18:26:59.273Z,-0.13
2022-12-10T18:28:30.821Z,-0.15
2022-12-10T18:30:02.628Z,-0.18
2022-12-10T18:31:36.284Z,-0.22
2022-12-10T18:33:14.091Z,-0.17
2022-12-10T18:34:45.775Z,-0.21
2022-12-10T18:36:26.007Z,-0.17
2022-12-10T18:37:57.730Z,-0.08
2022-12-10T18:39:32.416Z,-0.11
2022-12-10T18:41:03.979Z,-0.12
2022-12-10T18:42:35.569Z,-0.09
2022-12-10T18:44:07.185Z,-0.04
2022-12-10T18:45:38.865Z,-0.01
2022-12-10T18:47:12.780Z,0.00
2022-12-10T18:48:44.823Z,-0.03
2022-12-10T18:50:25.959Z,-0.05
2022-12-10T18:51:57.544Z,-0.06
2022-12-10T18:53:29.173Z,-0.04
2022-12-10T18:55:00.768Z,-0.03
2022-12-10T18:56:34.217Z,-0.05
2022-12-10T18:58:07.195Z,-0.07
2022-12-10T18:59:39.219Z,-0.06
2022-12-10T19:01:13.524Z,-0.09
2022-12-10T19:02:46.350Z,-0.14
2022-12-10T19:04:17.987Z,-0.10
2022-12-10T19:05:49.551Z,-0.05
2022-12-10T19:07:21.114Z,-0.06
2022-12-10T19:10:46.587Z,-0.05
2022-12-10T19:12:18.283Z,-0.02
2022-12-10T19:13:50.625Z,0.00
2022-12-10T19:15:22.666Z,0.15
2022-12-10T19:16:54.252Z,0.09
2022-12-10T19:18:25.841Z,0.10
2022-12-10T19:19:57.410Z,0.08
2022-12-10T19:21:29.785Z,0.06
2022-12-10T19:23:01.520Z,0.07
2022-12-10T19:24:33.079Z,0.02
2022-12-10T19:26:14.153Z,-0.03
2022-12-10T19:27:45.824Z,-0.08
2022-12-10T19:29:20.181Z,-0.08
2022-12-10T19:30:51.956Z,-0.07
2022-12-10T19:32:23.576Z,-0.14
2022-12-10T19:33:55.437Z,-0.10
2022-12-10T19:35:27.995Z,-0.14
2022-12-10T19:36:59.884Z,-0.17
2022-12-10T19:38:31.603Z,-0.16
2022-12-10T19:40:04.456Z,-0.11
2022-12-10T19:41:36.076Z,-0.16
2022-12-10T19:43:11.610Z,-0.22
2022-12-10T19:44:45.680Z,-0.15
2022-12-10T19:46:25.808Z,-0.21
2022-12-10T19:47:58.028Z,-0.26
2022-12-10T19:49:29.813Z,-0.29
2022-12-10T19:51:01.481Z,-0.30
2022-12-10T19:52:33.159Z,-0.30
2022-12-10T19:54:04.835Z,-0.25
2022-12-10T19:55:36.530Z,-0.21
2022-12-10T19:57:12.571Z,-0.26
2022-12-10T19:58:44.276Z,-0.26
2022-12-10T20:00:21.628Z,-0.20
2022-12-10T20:01:53.317Z,-0.23
2022-12-10T20:03:24.981Z,-0.25
2022-12-10T20:04:56.847Z,-0.27
2022-12-10T20:06:34.393Z,-0.27
2022-12-10T20:08:06.725Z,-0.25
2022-12-10T20:09:38.384Z,-0.20
2022-12-10T20:11:10.024Z,-0.20
2022-12-10T20:12:41.692Z,-0.25
2022-12-10T20:14:13.373Z,-0.28
2022-12-10T20:15:49.844Z,-0.31
2022-12-10T20:17:24.851Z,-0.30
2022-12-10T20:18:57.910Z,-0.27
2022-12-10T20:20:30.005Z,-0.26
2022-12-10T20:22:02.363Z,-0.28
2022-12-10T20:23:34.340Z,-0.28
2022-12-10T20:25:06.065Z,-0.30
2022-12-10T20:26:43.447Z,-0.28
2022-12-10T20:28:15.902Z,-0.26
2022-12-10T20:29:47.585Z,-0.26
2022-12-10T20:31:19.266Z,-0.21
2022-12-10T20:32:54.281Z,-0.19
2022-12-10T20:34:26.690Z,-0.16
2022-12-10T20:35:59.169Z,-0.23
2022-12-10T20:37:30.695Z,-0.20
2022-12-10T20:39:02.323Z,-0.22
2022-12-10T20:40:34.120Z,-0.25
2022-12-10T20:42:05.927Z,-0.30
2022-12-10T20:43:37.550Z,-0.29
2022-12-10T20:45:09.713Z,-0.24
2022-12-10T20:46:41.990Z,-0.25
2022-12-10T20:48:13.746Z,-0.30
2022-12-10T20:49:45.421Z,-0.29
2022-12-10T20:51:19.390Z,-0.34
2022-12-10T20:52:51.055Z,-0.40
2022-12-10T20:54:22.650Z,-0.38
2022-12-10T20:55:54.774Z,-0.33
2022-12-10T20:57:26.341Z,-0.34
2022-12-10T20:58:58.987Z,-0.40
2022-12-10T21:00:30.628Z,-0.44
2022-12-10T21:02:02.700Z,-0.42
2022-12-10T21:03:34.288Z,-0.43
2022-12-10T21:05:06.232Z,-0.48
2022-12-10T21:06:37.946Z,-0.46
2022-12-10T21:08:11.833Z,-0.38
2022-12-10T21:09:44.437Z,-0.43
2022-12-10T21:11:16.369Z,-0.44
2022-12-10T21:12:48.020Z,-0.48
2022-12-10T21:14:54.037Z,-0.51
2022-12-10T21:16:20.006Z,-0.50